NCAR-RAP Real-Time Weather Data

Output produced by METARs form (10 April 2020  07:17 UTC)
found at http://weather.rap.ucar.edu/surface/
 
KMLU 100653Z AUTO 36005KT 10SM OVC060 17/11 A2997 RMK AO2 SLP148 T01720111
KMLU 100553Z AUTO 00000KT 10SM FEW050 17/10 A2996 RMK AO2 SLP145 60000 T01720100 10206 20167 402500167 58003
KMLU 100453Z AUTO 05004KT 10SM BKN047 OVC080 18/12 A2996 RMK AO2 SLP143 T01780117
KMLU 100353Z AUTO 00000KT 10SM BKN050 18/10 A2998 RMK AO2 SLP152 T01830100
KMLU 100253Z 05004KT 10SM SCT055 18/11 A2997 RMK AO2 RAB13E39 SLP148 P0000 60000 T01830106 53040
KMLU 100153Z 35003KT 10SM BKN050 BKN065 BKN120 19/11 A2994 RMK AO2 LTG DSNT S PRESRR SLP136 T01940106
KMLU 100053Z 04004KT 10SM CLR 19/10 A2988 RMK AO2 SLP116 T01890100
KMLU 092353Z 04009KT 10SM CLR 20/09 A2985 RMK AO2 SLP108 T02000089 10250 20200 55008
KMLU 092253Z 03008KT 10SM CLR 22/10 A2985 RMK AO2 SLP106 T02170100
KMLU 092153Z 03010KT 10SM CLR 22/09 A2987 RMK AO2 SLP112 T02220089
KMLU 092053Z 05012KT 10SM CLR 24/10 A2988 RMK AO2 SLP115 T02390100 58023
KMLU 091953Z AUTO 06012G17KT 10SM CLR 25/11 A2991 RMK AO2 SLP126 T02500106
KMLU 091853Z 07009G16KT 10SM CLR 25/10 A2993 RMK AO2 SLP134 T02500100
KMLU 091753Z 05014G18KT 10SM CLR 23/09 A2995 RMK AO2 SLP138 T02330089 10239 20206 58002
KMLU 091653Z 04012KT 10SM CLR 23/09 A2996 RMK AO2 SLP142 T02280089
KMLU 091553Z 03016G20KT 10SM CLR 23/09 A2996 RMK AO2 SLP145 T02280094
KMLU 091453Z 06013G19KT 10SM CLR 22/11 A2995 RMK AO2 SLP141 T02220106 51035
KMLU 091353Z 04016G24KT 10SM CLR 21/10 A2994 RMK AO2 SLP137 T02060100
KMLU 091253Z 04013KT 10SM FEW024 SCT030 SCT035 21/15 A2992 RMK AO2 PK WND 05032/1233 WSHFT 1228 SLP131 T02110150
KMLU 091243Z 04018G31KT 10SM FEW012 SCT025 BKN030 21/16 A2992 RMK AO2 PK WND 05032/1233 WSHFT 1228 PRESRR T02110161
KMLU 091200Z 33004KT 3SM BR FEW012 BKN022 BKN034 24/22 A2985 RMK AO2 T02390222
KMLU 091153Z 32004KT 4SM BR FEW012 SCT022 BKN034 24/22 A2985 RMK AO2 SLP106 T02390222 10244 20233 53021
KMLU 091126Z 31006KT 5SM BR SCT014 24/22 A2984 RMK AO2 T02390222
KMLU 091116Z 30006KT 5SM BR BKN015 24/22 A2983 RMK AO2 T02390222
KMLU 091105Z 29006KT 5SM BR BKN013 BKN020 24/22 A2983 RMK AO2 T02390222
KMLU 091053Z 29008KT 5SM BR SCT011 24/22 A2982 RMK AO2 SLP097 T02390222
KMLU 091005Z AUTO 26008KT 5SM BR BKN010 24/22 A2980 RMK AO2 T02390222
KMLU 090953Z AUTO 26007KT 4SM BR BKN009 24/22 A2980 RMK AO2 SLP088 T02390222
KMLU 090944Z AUTO 26008KT 5SM BR SCT009 24/22 A2980 RMK AO2 T02390222
KMLU 090931Z AUTO 26009KT 3SM BR BKN009 24/22 A2980 RMK AO2 T02390222
KMLU 090853Z AUTO 24010KT 5SM BR SCT011 24/22 A2979 RMK AO2 SLP085 T02390222 56007